Time;durP1;ratioP1;P1;durP2;ratioP2;P2;SDS_P1;SDS_P2;PMS_P1;PMS_P2;Temp;Humidity;BMP_temperature;BMP_pressure;BME280_temperature;BME280_humidity;BME280_pressure;Samples;Min_cycle;Max_cycle;Signal;HPM_P1;HPM_P2
2023/06/17 00:01:04;;;;;;;14.52;13.10;;;;;;;14.76;100.00;101340.19;5061352;28;20179;-50
2023/06/17 00:03:30;;;;;;;13.60;12.30;;;;;;;14.74;100.00;101328.59;5059807;28;20565;-49
2023/06/17 00:05:55;;;;;;;13.57;12.27;;;;;;;14.72;100.00;101322.38;5067475;28;20187;-49
2023/06/17 00:08:21;;;;;;;15.85;14.10;;;;;;;14.65;100.00;101331.72;5068523;28;20231;-52
2023/06/17 00:10:47;;;;;;;15.60;13.77;;;;;;;14.69;100.00;101327.91;5065770;28;20207;-50
2023/06/17 00:13:18;;;;;;;13.25;11.85;;;;;;;14.78;100.00;101332.00;5056545;28;20280;-48
2023/06/17 00:15:47;;;;;;;12.70;11.50;;;;;;;14.75;100.00;101327.63;5073840;28;20199;-50
2023/06/17 00:18:14;;;;;;;14.05;12.80;;;;;;;14.78;100.00;101323.91;5055031;28;20191;-50
2023/06/17 00:20:39;;;;;;;14.00;12.52;;;;;;;14.76;100.00;101325.81;5063263;28;20281;-50
2023/06/17 00:23:06;;;;;;;13.48;11.30;;;;;;;14.80;100.00;101331.00;5058203;28;20312;-49
2023/06/17 00:25:31;;;;;;;14.15;12.75;;;;;;;14.70;100.00;101324.28;5060416;28;20174;-49
2023/06/17 00:27:57;;;;;;;12.75;11.57;;;;;;;14.70;100.00;101324.28;5064065;28;20202;-49
2023/06/17 00:30:23;;;;;;;14.27;12.75;;;;;;;14.76;100.00;101315.03;5063366;28;20676;-49
2023/06/17 00:32:48;;;;;;;14.25;12.77;;;;;;;14.67;100.00;101316.34;5060990;28;20316;-48
2023/06/17 00:35:14;;;;;;;13.82;12.60;;;;;;;14.66;100.00;101317.28;5063917;28;20929;-49
2023/06/17 00:37:40;;;;;;;15.88;14.40;;;;;;;14.50;100.00;101316.25;5062320;28;20327;-49
2023/06/17 00:40:09;;;;;;;14.50;13.02;;;;;;;14.54;100.00;101323.22;5058547;28;20248;-48
2023/06/17 00:42:36;;;;;;;14.25;12.70;;;;;;;14.53;100.00;101310.69;5065164;28;20808;-50
2023/06/17 00:45:02;;;;;;;13.82;12.32;;;;;;;14.52;100.00;101311.63;5060064;28;20197;-48
2023/06/17 00:47:28;;;;;;;14.07;12.52;;;;;;;14.50;100.00;101308.16;5065969;28;20193;-50
2023/06/17 00:49:54;;;;;;;13.13;11.95;;;;;;;14.49;100.00;101311.78;5058409;28;20214;-50
2023/06/17 00:52:20;;;;;;;15.30;13.68;;;;;;;14.38;100.00;101312.28;5065861;28;20412;-49
2023/06/17 00:54:45;;;;;;;16.75;14.80;;;;;;;14.35;100.00;101299.81;5062768;28;20648;-49
2023/06/17 00:57:15;;;;;;;14.75;13.32;;;;;;;14.38;100.00;101310.44;5057408;28;20214;-50
2023/06/17 00:59:43;;;;;;;13.70;12.32;;;;;;;14.43;100.00;101304.88;5060066;28;20635;-49
2023/06/17 01:02:10;;;;;;;12.45;11.30;;;;;;;14.45;100.00;101310.16;5054284;28;20200;-51
2023/06/17 01:04:43;;;;;;;15.38;12.43;;;;;;;14.45;100.00;101304.78;5061882;28;20186;-48
2023/06/17 01:07:43;;;;;;;14.25;12.95;;;;;;;14.35;100.00;101304.34;5055798;28;20220;-48
2023/06/17 01:10:22;;;;;;;12.75;11.55;;;;;;;14.34;100.00;101306.16;5069420;28;20203;-50
2023/06/17 01:12:48;;;;;;;13.52;12.13;;;;;;;14.21;100.00;101299.56;5064864;28;20186;-51
2023/06/17 01:15:16;;;;;;;14.35;12.93;;;;;;;14.19;100.00;101307.75;5060245;28;20522;-50
2023/06/17 01:17:46;;;;;;;15.77;14.27;;;;;;;13.98;100.00;101300.63;5060184;28;20251;-52
2023/06/17 01:20:15;;;;;;;14.50;13.10;;;;;;;14.05;100.00;101298.53;5060510;28;20685;-49
2023/06/17 01:22:42;;;;;;;16.10;14.35;;;;;;;13.99;100.00;101300.56;5056492;28;20186;-49
2023/06/17 01:25:09;;;;;;;13.20;12.00;;;;;;;14.12;100.00;101291.91;5058345;28;20191;-48
2023/06/17 01:27:35;;;;;;;13.95;12.60;;;;;;;14.13;100.00;101304.44;5058940;28;20183;-49
2023/06/17 01:30:02;;;;;;;15.70;14.00;;;;;;;13.95;100.00;101303.44;5064381;28;20199;-49
2023/06/17 01:32:29;;;;;;;15.50;13.93;;;;;;;13.89;100.00;101303.75;5064615;28;20570;-50
2023/06/17 01:35:05;;;;;;;16.63;14.88;;;;;;;13.81;100.00;101306.75;5064949;28;20184;-48
2023/06/17 01:37:47;;;;;;;14.35;13.10;;;;;;;13.80;100.00;101305.88;5055147;28;20648;-51
2023/06/17 01:40:14;;;;;;;14.15;12.68;;;;;;;13.81;100.00;101309.44;5055353;28;20666;-51
2023/06/17 01:42:45;;;;;;;16.33;14.15;;;;;;;13.72;100.00;101316.13;5058902;28;20179;-50
2023/06/17 01:45:12;;;;;;;13.63;12.27;;;;;;;13.78;100.00;101306.91;5057300;28;20195;-50
2023/06/17 01:47:38;;;;;;;16.58;14.00;;;;;;;13.59;100.00;101315.75;5061195;28;20551;-49
2023/06/17 01:50:05;;;;;;;14.23;12.80;;;;;;;13.58;100.00;101316.72;5061312;28;20195;-51
2023/06/17 01:52:31;;;;;;;18.58;14.32;;;;;;;13.56;100.00;101312.34;5060414;28;20225;-49
2023/06/17 01:54:58;;;;;;;14.98;13.40;;;;;;;13.54;100.00;101316.91;5064665;28;20673;-49
2023/06/17 01:57:25;;;;;;;16.15;14.60;;;;;;;13.55;100.00;101318.66;5070920;28;20280;-51
2023/06/17 01:59:53;;;;;;;13.50;12.18;;;;;;;13.58;100.00;101316.72;5059720;28;20210;-52
2023/06/17 02:02:19;;;;;;;13.95;12.07;;;;;;;13.54;100.00;101319.63;5057188;28;20186;-50
2023/06/17 02:04:47;;;;;;;14.60;13.00;;;;;;;13.51;100.00;101317.94;5058092;28;20199;-49
2023/06/17 02:07:13;;;;;;;14.32;12.77;;;;;;;13.56;100.00;101315.91;5075982;22;20248;-51
2023/06/17 02:09:39;;;;;;;14.20;12.90;;;;;;;13.53;100.00;101312.47;5048487;28;20354;-51
2023/06/17 02:12:07;;;;;;;16.70;14.98;;;;;;;13.46;100.00;101302.91;5038387;28;20179;-51
2023/06/17 02:14:33;;;;;;;15.40;13.70;;;;;;;13.45;100.00;101317.31;5038249;28;20554;-51
2023/06/17 02:17:00;;;;;;;13.32;12.13;;;;;;;13.48;100.00;101323.44;5034721;28;20658;-49
2023/06/17 02:19:28;;;;;;;14.73;13.23;;;;;;;13.40;100.00;101312.09;5043230;28;20203;-49
2023/06/17 02:21:54;;;;;;;15.13;13.52;;;;;;;13.32;100.00;101317.81;5034720;28;20183;-49
2023/06/17 02:24:21;;;;;;;14.63;13.13;;;;;;;13.28;100.00;101308.13;5033585;28;20203;-48
2023/06/17 02:26:49;;;;;;;13.23;12.02;;;;;;;13.33;100.00;101310.63;5043042;28;20682;-50
2023/06/17 02:29:15;;;;;;;17.42;15.45;;;;;;;13.22;100.00;101304.78;5034530;28;20306;-48
2023/06/17 02:31:41;;;;;;;15.65;14.18;;;;;;;13.26;100.00;101309.09;5036359;28;20180;-49
2023/06/17 02:34:07;;;;;;;14.95;13.45;;;;;;;13.28;100.00;101312.59;5054048;28;20190;-51
2023/06/17 02:36:33;;;;;;;18.75;16.85;;;;;;;13.24;100.00;101313.66;5036120;28;20195;-48
2023/06/17 02:38:59;;;;;;;20.13;17.95;;;;;;;13.09;100.00;101309.78;5043373;28;20685;-48
2023/06/17 02:41:26;;;;;;;19.67;16.10;;;;;;;12.84;100.00;101305.41;5032961;28;20196;-51
2023/06/17 02:43:53;;;;;;;19.70;17.65;;;;;;;12.85;100.00;101311.66;5036255;28;20192;-48
2023/06/17 02:46:19;;;;;;;18.00;15.25;;;;;;;12.93;100.00;101320.31;5034047;28;20562;-50
2023/06/17 02:48:44;;;;;;;16.58;14.50;;;;;;;12.96;100.00;101314.78;5036365;28;20346;-49
2023/06/17 02:51:10;;;;;;;15.38;13.82;;;;;;;13.02;100.00;101317.25;5040946;28;20566;-51
2023/06/17 02:53:36;;;;;;;18.08;16.17;;;;;;;12.94;100.00;101312.19;5036396;28;20261;-50
2023/06/17 02:56:02;;;;;;;18.73;16.83;;;;;;;13.01;100.00;101314.59;5042213;28;20176;-51
2023/06/17 02:58:30;;;;;;;17.00;15.32;;;;;;;13.10;100.00;101320.50;5033841;28;20318;-52
2023/06/17 03:00:57;;;;;;;18.00;16.23;;;;;;;13.19;100.00;101325.50;5033870;28;20693;-51
2023/06/17 03:03:33;;;;;;;17.55;15.82;;;;;;;13.19;100.00;101312.03;5038865;28;20195;-50
2023/06/17 03:06:01;;;;;;;18.88;16.77;;;;;;;13.22;100.00;101315.53;5034598;28;20238;-49
2023/06/17 03:08:34;;;;;;;18.02;15.75;;;;;;;13.26;100.00;101315.34;5030933;28;20192;-49
2023/06/17 03:11:00;;;;;;;16.80;15.15;;;;;;;13.26;100.00;101317.19;5035466;28;20668;-50
2023/06/17 03:13:28;;;;;;;20.70;18.25;;;;;;;13.15;100.00;101315.78;5038364;28;20179;-49
2023/06/17 03:15:55;;;;;;;20.55;18.35;;;;;;;13.17;100.00;101316.59;5039475;28;20694;-49
2023/06/17 03:18:22;;;;;;;17.88;16.08;;;;;;;13.23;100.00;101315.50;5041075;28;20175;-50
2023/06/17 03:20:53;;;;;;;21.33;18.90;;;;;;;13.14;100.00;101318.53;5038507;28;20295;-49
2023/06/17 03:23:20;;;;;;;18.80;17.00;;;;;;;13.20;100.00;101312.91;5042467;28;20180;-50
2023/06/17 03:25:51;;;;;;;17.20;15.52;;;;;;;13.28;100.00;101307.22;5045551;28;20188;-49
2023/06/17 03:28:17;;;;;;;18.05;16.13;;;;;;;13.29;100.00;101309.00;5038805;28;20222;-48
2023/06/17 03:30:44;;;;;;;18.65;16.73;;;;;;;13.30;100.00;101305.38;5040637;28;20530;-49
2023/06/17 03:33:12;;;;;;;20.08;17.90;;;;;;;13.27;100.00;101309.03;5045143;28;20193;-49
2023/06/17 03:35:38;;;;;;;19.90;17.83;;;;;;;13.29;100.00;101306.31;5039689;28;20568;-51
2023/06/17 03:38:04;;;;;;;19.90;18.02;;;;;;;13.33;100.00;101310.63;5038239;28;20184;-49
2023/06/17 03:40:30;;;;;;;20.02;18.02;;;;;;;13.31;100.00;101302.59;5039568;28;20276;-49
2023/06/17 03:42:58;;;;;;;19.50;17.55;;;;;;;13.22;100.00;101300.28;5044133;28;20557;-52
2023/06/17 03:45:23;;;;;;;17.33;15.73;;;;;;;13.24;100.00;101305.59;5040887;28;20249;-51
2023/06/17 03:47:51;;;;;;;19.98;17.88;;;;;;;13.27;100.00;101305.47;5039956;28;20200;-49
2023/06/17 03:50:17;;;;;;;17.42;15.70;;;;;;;13.32;100.00;101304.38;5035496;28;20219;-48
2023/06/17 03:52:43;;;;;;;18.70;16.83;;;;;;;13.36;100.00;101299.75;5038374;28;20241;-49
2023/06/17 03:55:10;;;;;;;21.55;19.30;;;;;;;13.32;100.00;101303.50;5037851;28;20176;-49
2023/06/17 03:57:36;;;;;;;21.75;19.48;;;;;;;13.23;100.00;101312.81;5040662;28;20526;-49
2023/06/17 04:00:04;;;;;;;18.25;16.45;;;;;;;13.38;100.00;101301.44;5040092;28;20238;-53
2023/06/17 04:02:44;;;;;;;19.67;17.77;;;;;;;13.41;100.00;101307.63;5038512;28;20633;-47
2023/06/17 04:05:13;;;;;;;18.48;16.67;;;;;;;13.46;100.00;101306.47;5038211;28;20596;-49
2023/06/17 04:07:39;;;;;;;17.27;15.48;;;;;;;13.47;100.00;101315.41;5038227;28;20203;-49
2023/06/17 04:10:09;;;;;;;21.60;19.50;;;;;;;13.37;100.00;101312.25;5039409;28;20220;-49
2023/06/17 04:12:41;;;;;;;22.90;19.95;;;;;;;13.29;100.00;101314.38;5025406;28;20661;-50
2023/06/17 04:15:08;;;;;;;19.60;17.67;;;;;;;13.31;100.00;101321.44;5038573;28;20179;-48
2023/06/17 04:17:37;;;;;;;20.70;18.60;;;;;;;13.33;100.00;101310.63;5039762;28;20685;-49
2023/06/17 04:20:12;;;;;;;20.00;18.10;;;;;;;13.47;100.00;101315.41;5037742;28;20195;-48
2023/06/17 04:22:42;;;;;;;21.38;19.17;;;;;;;13.49;100.00;101306.34;5043273;28;20207;-50
2023/06/17 04:25:10;;;;;;;20.77;18.58;;;;;;;13.55;100.00;101308.75;5036210;28;20257;-49
2023/06/17 04:27:38;;;;;;;21.73;19.63;;;;;;;13.58;100.00;101311.34;5040478;28;20535;-49
2023/06/17 04:30:09;;;;;;;22.58;20.30;;;;;;;13.65;100.00;101306.56;5024024;28;20207;-50
2023/06/17 04:32:38;;;;;;;23.20;20.80;;;;;;;13.66;100.00;101313.69;5047814;28;20191;-52
2023/06/17 04:35:06;;;;;;;24.20;21.80;;;;;;;13.63;100.00;101321.91;5041499;28;20197;-50
2023/06/17 04:37:37;;;;;;;24.38;22.08;;;;;;;13.67;100.00;101326.22;5037393;28;20230;-49
2023/06/17 04:40:06;;;;;;;24.35;21.95;;;;;;;13.69;100.00;101324.34;5036755;28;20287;-49
2023/06/17 04:42:33;;;;;;;20.40;18.50;;;;;;;13.88;100.00;101326.22;5041426;28;20195;-49
2023/06/17 04:45:01;;;;;;;27.70;24.83;;;;;;;13.98;100.00;101333.81;5041673;28;20194;-50
2023/06/17 04:47:28;;;;;;;28.25;25.50;;;;;;;14.09;100.00;101337.88;5037390;28;20191;-49
2023/06/17 04:49:55;;;;;;;31.08;27.85;;;;;;;14.17;100.00;101335.72;5035573;28;20231;-50
2023/06/17 04:52:24;;;;;;;30.60;27.42;;;;;;;14.22;100.00;101334.53;5035620;28;20180;-50
2023/06/17 04:54:51;;;;;;;30.45;27.70;;;;;;;14.29;100.00;101340.53;5037003;28;20195;-52
2023/06/17 04:57:18;;;;;;;30.25;27.25;;;;;;;14.39;100.00;101335.59;5035914;28;20176;-51
2023/06/17 04:59:46;;;;;;;30.55;27.70;;;;;;;14.34;100.00;101335.81;5038789;28;20601;-50
2023/06/17 05:02:15;;;;;;;30.40;27.50;;;;;;;14.44;100.00;101333.56;5040772;28;20172;-49
2023/06/17 05:04:41;;;;;;;31.45;28.33;;;;;;;14.55;100.00;101336.66;5035751;28;20184;-49
2023/06/17 05:07:07;;;;;;;30.02;27.13;;;;;;;14.61;100.00;101340.91;5036891;28;20194;-49
2023/06/17 05:09:35;;;;;;;30.15;27.08;;;;;;;14.65;100.00;101345.22;5037325;28;20566;-50
2023/06/17 05:12:01;;;;;;;26.50;24.08;;;;;;;14.77;100.00;101341.91;5032849;28;20183;-50
2023/06/17 05:14:26;;;;;;;26.30;23.90;;;;;;;14.92;100.00;101343.00;5039277;28;20674;-49
2023/06/17 05:16:52;;;;;;;29.33;26.42;;;;;;;14.92;100.00;101332.22;5037713;28;20592;-49
2023/06/17 05:19:17;;;;;;;26.45;23.88;;;;;;;15.10;100.00;101338.53;5038972;28;20270;-50
2023/06/17 05:21:43;;;;;;;25.38;22.88;;;;;;;15.13;100.00;101332.09;5045324;28;20242;-49
2023/06/17 05:24:10;;;;;;;27.42;24.55;;;;;;;15.16;100.00;101337.38;5044815;28;20179;-49
2023/06/17 05:26:36;;;;;;;27.33;24.73;;;;;;;14.86;100.00;101339.72;5040055;28;20179;-48
2023/06/17 05:29:02;;;;;;;27.83;25.02;;;;;;;14.80;100.00;101341.78;5045036;28;20322;-48
2023/06/17 05:31:29;;;;;;;26.63;23.45;;;;;;;14.89;100.00;101339.56;5045099;28;20183;-48
2023/06/17 05:33:54;;;;;;;25.42;23.08;;;;;;;15.03;100.00;101343.38;5043812;28;20188;-49
2023/06/17 05:36:20;;;;;;;25.35;22.80;;;;;;;15.19;100.00;101348.88;5044288;28;20180;-46
2023/06/17 05:38:47;;;;;;;26.25;23.70;;;;;;;15.27;100.00;101350.34;5047320;28;20176;-49
2023/06/17 05:41:12;;;;;;;25.23;22.83;;;;;;;15.34;100.00;101349.94;5047605;28;20535;-50
2023/06/17 05:43:40;;;;;;;26.30;23.80;;;;;;;15.49;100.00;101339.34;5047345;28;20179;-49
2023/06/17 05:46:06;;;;;;;25.67;23.17;;;;;;;15.69;100.00;101338.31;5048857;28;20230;-47
2023/06/17 05:48:31;;;;;;;25.70;23.10;;;;;;;15.77;100.00;101345.09;5048468;28;20250;-49
2023/06/17 05:50:57;;;;;;;26.45;23.80;;;;;;;15.89;100.00;101346.28;5049725;28;20207;-49
2023/06/17 05:53:23;;;;;;;26.67;23.80;;;;;;;15.94;100.00;101327.13;5048538;28;20220;-47
2023/06/17 05:55:49;;;;;;;24.80;22.30;;;;;;;15.97;100.00;101333.25;5049599;28;20179;-48
2023/06/17 05:58:15;;;;;;;25.60;23.02;;;;;;;15.95;100.00;101332.47;5049750;28;20700;-47
2023/06/17 06:00:49;;;;;;;24.77;21.95;;;;;;;15.97;100.00;101340.50;5048165;28;20623;-47
2023/06/17 06:03:14;;;;;;;24.83;22.33;;;;;;;15.91;100.00;101338.09;5049799;28;20242;-45
2023/06/17 06:05:40;;;;;;;23.88;21.58;;;;;;;15.99;100.00;101341.28;5041010;28;20237;-48
2023/06/17 06:08:06;;;;;;;24.00;21.50;;;;;;;16.03;100.00;101353.69;5038611;28;20180;-47
2023/06/17 06:10:32;;;;;;;22.38;19.67;;;;;;;16.09;100.00;101350.63;5038852;28;20245;-47
2023/06/17 06:13:00;;;;;;;22.48;20.15;;;;;;;16.25;100.00;101351.59;5039432;28;20207;-45
2023/06/17 06:15:27;;;;;;;22.40;20.05;;;;;;;16.39;100.00;101358.06;5039714;28;20252;-48
2023/06/17 06:17:53;;;;;;;24.00;19.33;;;;;;;16.54;100.00;101359.06;5040571;28;20274;-46
2023/06/17 06:20:18;;;;;;;19.02;17.13;;;;;;;16.91;100.00;101348.94;5040798;28;20196;-48
2023/06/17 06:22:44;;;;;;;18.75;16.73;;;;;;;17.14;100.00;101351.19;5031500;28;20198;-48
2023/06/17 06:25:11;;;;;;;20.02;17.25;;;;;;;17.12;100.00;101353.16;5031014;28;20183;-48
2023/06/17 06:27:36;;;;;;;15.15;13.55;;;;;;;17.11;100.00;101342.41;5036345;28;20634;-45
2023/06/17 06:30:03;;;;;;;14.32;12.68;;;;;;;17.35;100.00;101354.50;5035614;28;20645;-47
2023/06/17 06:32:32;;;;;;;14.25;12.10;;;;;;;17.73;100.00;101353.19;5036789;28;20188;-48
2023/06/17 06:34:58;;;;;;;10.60;9.13;;;;;;;17.69;100.00;101349.81;5042401;28;20187;-48
2023/06/17 06:37:25;;;;;;;10.35;8.45;;;;;;;18.03;100.00;101329.69;5026782;28;20274;-48
2023/06/17 06:39:51;;;;;;;10.98;7.93;;;;;;;18.61;100.00;101337.88;5038514;28;20202;-46
2023/06/17 06:42:18;;;;;;;11.65;7.03;;;;;;;18.55;100.00;101335.53;5034050;28;20192;-47
2023/06/17 06:44:49;;;;;;;7.15;6.25;;;;;;;19.11;100.00;101339.16;5036045;28;20184;-48
2023/06/17 06:47:16;;;;;;;5.60;5.03;;;;;;;19.14;100.00;101320.81;5035402;28;20176;-45
2023/06/17 06:49:41;;;;;;;6.53;4.57;;;;;;;19.12;100.00;101327.31;5037824;28;20208;-47
2023/06/17 06:52:07;;;;;;;9.82;5.05;;;;;;;19.06;100.00;101320.44;5045924;28;20274;-46
2023/06/17 06:54:33;;;;;;;5.78;3.95;;;;;;;18.66;100.00;101323.03;5038884;28;20650;-46
2023/06/17 06:56:59;;;;;;;4.97;4.18;;;;;;;18.60;100.00;101317.97;5045418;28;20215;-47
2023/06/17 06:59:25;;;;;;;6.10;4.57;;;;;;;18.64;100.00;101307.81;5038517;28;20363;-46
2023/06/17 07:01:52;;;;;;;5.95;4.13;;;;;;;18.66;100.00;101314.88;5044400;28;20176;-47
2023/06/17 07:04:21;;;;;;;8.85;5.20;;;;;;;18.65;100.00;101320.41;5035303;28;20279;-46
2023/06/17 07:06:49;;;;;;;5.35;4.47;;;;;;;18.85;100.00;101320.03;5046751;28;20187;-46
2023/06/17 07:09:19;;;;;;;6.43;4.10;;;;;;;19.10;100.00;101322.00;5041085;28;20203;-45
2023/06/17 07:11:45;;;;;;;7.28;4.38;;;;;;;18.87;100.00;101315.38;5047252;28;20270;-44
2023/06/17 07:14:11;;;;;;;4.40;3.97;;;;;;;18.64;100.00;101327.66;5047023;28;20726;-46
2023/06/17 07:16:37;;;;;;;8.55;4.57;;;;;;;18.76;100.00;101325.13;5041709;28;20370;-44
2023/06/17 07:19:03;;;;;;;6.72;3.72;;;;;;;18.70;100.00;101312.84;5040785;28;20694;-46
2023/06/17 07:21:29;;;;;;;4.93;3.90;;;;;;;18.97;100.00;101325.63;5043163;28;20221;-46
2023/06/17 07:23:54;;;;;;;8.57;4.72;;;;;;;18.87;99.54;101322.63;5040804;28;20563;-46
2023/06/17 07:26:20;;;;;;;5.82;4.95;;;;;;;18.88;99.91;101329.81;5043668;28;20241;-44
2023/06/17 07:28:46;;;;;;;8.68;4.70;;;;;;;18.97;99.66;101328.34;5049660;28;20179;-45
2023/06/17 07:31:15;;;;;;;8.43;4.30;;;;;;;19.12;100.00;101325.47;5040249;28;20199;-46
2023/06/17 07:33:41;;;;;;;5.68;4.13;;;;;;;19.26;99.23;101331.84;5035774;28;20318;-45
2023/06/17 07:36:07;;;;;;;5.45;4.05;;;;;;;18.89;99.21;101323.41;5036080;28;20659;-46
2023/06/17 07:38:33;;;;;;;6.65;4.35;;;;;;;18.95;99.54;101328.44;5041826;28;20180;-43
2023/06/17 07:41:00;;;;;;;6.82;3.60;;;;;;;19.13;97.79;101324.53;5037893;28;20318;-44
2023/06/17 07:43:26;;;;;;;7.07;4.50;;;;;;;19.23;98.13;101335.63;5036465;28;20188;-47
2023/06/17 08:57:12;;;;;;;1.73;1.63;;;;;;;21.61;61.06;101203.25;6132197;22;20897;-78
2023/06/17 09:13:14;;;;;;;1.52;1.40;;;;;;;21.93;60.81;101211.63;5177030;22;20222;-46
2023/06/17 09:15:40;;;;;;;2.40;1.90;;;;;;;22.08;61.08;101219.53;5052550;28;20206;-47
2023/06/17 09:18:07;;;;;;;1.90;1.80;;;;;;;21.91;61.63;101226.34;5072210;28;20189;-47
2023/06/17 09:20:33;;;;;;;1.80;1.58;;;;;;;21.63;61.95;101236.75;5068412;28;20397;-46
2023/06/17 09:23:00;;;;;;;2.63;2.10;;;;;;;21.38;62.65;101233.16;5059159;28;20202;-46
2023/06/17 09:25:26;;;;;;;3.92;1.70;;;;;;;21.71;62.71;101239.75;5067825;28;20299;-46
2023/06/17 09:27:56;;;;;;;3.17;1.88;;;;;;;21.93;61.69;101224.38;5069834;28;20193;-48
2023/06/17 09:30:25;;;;;;;1.83;1.63;;;;;;;22.23;61.82;101226.53;5071870;28;20210;-46
2023/06/17 09:32:52;;;;;;;4.38;1.83;;;;;;;22.17;60.03;101210.59;5067859;28;20216;-47
2023/06/17 09:35:18;;;;;;;2.00;1.80;;;;;;;22.21;61.01;101226.63;5075877;28;20649;-47
2023/06/17 09:37:48;;;;;;;3.42;2.17;;;;;;;22.16;60.95;101230.72;5065802;28;20190;-50
2023/06/17 09:40:14;;;;;;;2.67;2.35;;;;;;;21.88;62.45;101232.91;5068589;28;20207;-47
2023/06/17 09:42:43;;;;;;;3.25;1.80;;;;;;;21.84;63.38;101250.53;5068667;28;20202;-47
2023/06/17 09:45:11;;;;;;;3.00;2.03;;;;;;;21.79;64.27;101239.97;5070808;28;20838;-48
2023/06/17 09:47:37;;;;;;;3.53;2.20;;;;;;;21.59;65.30;101266.09;5071334;28;20202;-48
2023/06/17 09:50:11;;;;;;;1.92;1.80;;;;;;;21.73;64.68;101250.50;5074117;28;20213;-49
2023/06/17 09:52:38;;;;;;;3.42;1.75;;;;;;;21.77;63.22;101243.81;5065395;28;20201;-48
2023/06/17 09:55:05;;;;;;;2.30;2.10;;;;;;;22.03;62.81;101236.28;5068956;28;20186;-48
2023/06/17 09:57:31;;;;;;;3.47;1.80;;;;;;;21.78;63.22;101242.84;5069033;28;20264;-47
2023/06/17 10:00:10;;;;;;;1.95;1.83;;;;;;;21.82;63.30;101238.88;5074281;28;20267;-48
2023/06/17 10:02:37;;;;;;;3.25;2.20;;;;;;;21.90;63.62;101241.84;5068219;28;20185;-48
2023/06/17 10:05:04;;;;;;;3.80;1.95;;;;;;;21.92;63.17;101250.78;5073841;28;20197;-48
2023/06/17 10:07:31;;;;;;;1.75;1.65;;;;;;;21.87;62.12;101238.53;5070648;28;20197;-47
2023/06/17 10:09:57;;;;;;;2.38;2.00;;;;;;;21.92;61.59;101230.84;5068734;28;20206;-45
2023/06/17 10:12:25;;;;;;;2.53;2.05;;;;;;;22.00;60.86;101223.78;5063365;28;20231;-46
2023/06/17 10:14:51;;;;;;;2.65;1.92;;;;;;;21.99;61.31;101235.66;5079089;28;20696;-48
2023/06/17 10:17:21;;;;;;;4.68;2.10;;;;;;;22.06;61.91;101243.34;5069655;28;20189;-48
2023/06/17 10:19:48;;;;;;;3.28;1.92;;;;;;;22.04;59.86;101215.31;5069116;28;20622;-48
2023/06/17 10:22:19;;;;;;;2.80;2.03;;;;;;;22.11;59.32;101222.03;5072315;28;20186;-46
2023/06/17 10:24:47;;;;;;;2.40;2.20;;;;;;;22.28;60.11;101224.31;5071004;28;20224;-48
2023/06/17 10:27:13;;;;;;;2.50;2.03;;;;;;;22.10;60.62;101240.25;5076037;28;20254;-48
2023/06/17 10:29:43;;;;;;;3.70;2.33;;;;;;;21.88;61.96;101238.38;5069226;28;20245;-50
2023/06/17 10:32:20;;;;;;;2.58;2.33;;;;;;;21.78;63.74;101259.22;5065832;28;20186;-48
2023/06/17 10:35:11;;;;;;;2.42;2.22;;;;;;;21.72;63.59;101252.38;5068079;28;20216;-51
2023/06/17 10:37:45;;;;;;;3.10;2.13;;;;;;;21.93;63.12;101248.94;5070539;28;20212;-49
2023/06/17 10:40:27;;;;;;;4.53;2.20;;;;;;;22.05;62.68;101249.81;5068729;28;20202;-52
2023/06/17 10:43:01;;;;;;;2.83;2.20;;;;;;;21.92;62.70;101245.34;5078618;28;20201;-49
2023/06/17 10:45:32;;;;;;;2.38;2.15;;;;;;;22.13;62.31;101244.63;5072225;28;20182;-47
2023/06/17 10:48:24;;;;;;;2.47;2.28;;;;;;;22.13;62.69;101250.94;5071536;28;20202;-50
2023/06/17 10:50:58;;;;;;;2.58;2.10;;;;;;;22.09;61.36;101237.69;5064890;28;20222;-48
2023/06/17 10:53:29;;;;;;;2.25;2.00;;;;;;;21.98;61.14;101238.53;5069578;28;20195;-48
2023/06/17 10:55:56;;;;;;;2.10;1.90;;;;;;;21.77;61.76;101235.63;5065582;28;20199;-50
2023/06/17 10:58:23;;;;;;;1.98;1.63;;;;;;;22.08;62.26;101244.97;5065504;28;20179;-48
2023/06/17 11:01:08;;;;;;;3.58;2.10;;;;;;;22.00;60.86;101242.00;5070495;28;20202;-50
2023/06/17 11:03:34;;;;;;;2.33;2.10;;;;;;;22.09;60.34;101233.06;5077852;28;20715;-50
2023/06/17 11:06:05;;;;;;;2.55;2.22;;;;;;;22.04;60.11;101224.41;5070995;28;20193;-51
2023/06/17 11:08:33;;;;;;;2.78;2.10;;;;;;;21.79;60.73;101228.22;5065945;28;20271;-50
2023/06/17 11:11:25;;;;;;;2.65;2.45;;;;;;;21.84;61.70;101242.34;5076146;28;20695;-49
2023/06/17 11:13:51;;;;;;;2.58;2.30;;;;;;;21.63;64.34;101255.81;5066696;28;20217;-52
2023/06/17 11:16:18;;;;;;;4.40;2.25;;;;;;;21.72;64.84;101268.72;5073941;28;20335;-50
2023/06/17 11:18:44;;;;;;;2.85;2.40;;;;;;;21.77;63.23;101247.41;5070901;28;20202;-51
2023/06/17 11:21:10;;;;;;;3.65;2.40;;;;;;;21.83;61.21;101232.44;5077281;28;20189;-49
2023/06/17 11:23:39;;;;;;;2.58;2.30;;;;;;;22.00;60.42;101233.81;5073333;28;20187;-47
2023/06/17 11:26:07;;;;;;;2.38;2.20;;;;;;;22.08;58.67;101217.69;5067956;28;20186;-51
2023/06/17 11:28:32;;;;;;;3.72;2.30;;;;;;;22.18;57.96;101209.63;5071861;28;20190;-50
2023/06/17 11:30:59;;;;;;;2.92;2.22;;;;;;;22.07;58.36;101212.38;5074882;28;20221;-51
2023/06/17 11:33:25;;;;;;;3.08;2.33;;;;;;;22.08;59.92;101238.66;5067695;28;20182;-50
2023/06/17 11:35:53;;;;;;;2.60;2.40;;;;;;;22.01;59.20;101230.09;5070222;28;20249;-51
2023/06/17 11:38:20;;;;;;;4.15;2.60;;;;;;;21.71;58.83;101201.56;5073859;28;20186;-52
2023/06/17 11:40:46;;;;;;;3.30;2.33;;;;;;;21.35;58.76;101206.13;5075829;28;20747;-50
2023/06/17 11:43:11;;;;;;;2.55;2.35;;;;;;;21.43;58.51;101210.13;5072641;28;20254;-49
2023/06/17 11:45:37;;;;;;;2.78;2.50;;;;;;;21.34;59.03;101206.25;5069245;28;20198;-50
2023/06/17 11:48:05;;;;;;;3.13;2.70;;;;;;;21.47;58.24;101209.81;5068052;28;20195;-49
2023/06/17 11:50:31;;;;;;;3.13;2.50;;;;;;;21.46;58.62;101207.19;5070798;28;20255;-46
2023/06/17 11:52:56;;;;;;;3.05;2.83;;;;;;;21.42;57.22;101195.66;5070467;28;20194;-50
2023/06/17 11:55:35;;;;;;;3.50;2.50;;;;;;;21.32;57.71;101192.75;5070950;28;20193;-51
2023/06/17 11:58:03;;;;;;;2.40;2.20;;;;;;;21.58;58.08;101193.47;5087533;28;20222;-51
2023/06/17 12:00:30;;;;;;;3.75;2.83;;;;;;;21.55;57.98;101188.25;5078252;28;20205;-53
2023/06/17 12:02:59;;;;;;;2.60;2.40;;;;;;;21.53;57.37;101182.03;5077211;28;20672;-49
2023/06/17 12:05:28;;;;;;;2.88;2.50;;;;;;;22.04;56.02;101180.75;5067612;28;20185;-49
2023/06/17 12:07:59;;;;;;;2.42;2.22;;;;;;;21.85;53.77;101145.88;5069966;28;20283;-50
2023/06/17 12:10:26;;;;;;;2.88;2.42;;;;;;;21.79;55.99;101155.41;5067834;28;20310;-51
2023/06/17 12:12:55;;;;;;;3.67;2.10;;;;;;;21.63;55.68;101163.09;5076193;28;20257;-52
2023/06/17 12:15:27;;;;;;;2.33;2.15;;;;;;;21.68;55.77;101152.69;5067537;28;20186;-51
2023/06/17 12:17:53;;;;;;;3.80;2.25;;;;;;;21.57;56.09;101152.69;5068377;28;20206;-50
2023/06/17 12:20:20;;;;;;;3.33;2.30;;;;;;;21.62;56.18;101160.50;5067127;28;20300;-50
2023/06/17 12:22:48;;;;;;;2.78;2.17;;;;;;;21.64;55.49;101151.19;5059228;28;20193;-50
2023/06/17 12:25:14;;;;;;;3.47;2.35;;;;;;;21.62;55.00;101150.44;5076037;28;20175;-52
2023/06/17 12:27:42;;;;;;;3.15;2.70;;;;;;;21.73;55.06;101150.44;5071356;28;20198;-49
2023/06/17 12:30:09;;;;;;;4.13;2.50;;;;;;;21.59;55.09;101140.66;5067989;28;20241;-51
2023/06/17 12:32:36;;;;;;;4.18;2.67;;;;;;;21.85;56.13;101161.41;5071741;28;20208;-50
2023/06/17 12:35:02;;;;;;;4.00;2.50;;;;;;;21.76;55.05;101155.69;5071542;28;20191;-51
2023/06/17 12:37:28;;;;;;;7.75;2.88;;;;;;;22.02;55.47;101149.97;5072914;28;20220;-49